Monday, April 23, 2018, 1:38 AM GMT
Back to Local

CWJB, Ste Foy CS , Que.

Location: , , Canada Lat: 47.3
Local Time: 1:38 AM GMT ( 1:38 GMT) Lon: -71.267
Time Zone: GMT Elev: 298 ft

Show me the last for .
Show Coded

Time T Td Feel RH Dir Speed Gust Alt SLP Vis Weather Sky Remarks
2018-04-23 01:00 46 - 44 0 210° 3 - - - 0 None
2018-04-23 00:00 49 - 48 0 210° 5 - - - 0 None
2018-04-22 23:00 53 - - 0 320° 6 - - - 0 None
2018-04-22 22:00 52 - - 0 220° 5 - - - 0 Peak wind: 21 mph (19 kts) from 210° at 19 min
2018-04-22 21:00 49 - 42 0 220° 12 22 - - 0 Peak wind: 21 mph (19 kts) from 220° at 57 min
2018-04-22 20:00 51 - - 0 220° 10 17 - - 0 Peak wind: 21 mph (19 kts) from 250° at 14 min
2018-04-22 19:00 50 - 44 0 220° 10 17 - - 0 None
2018-04-22 18:00 49 - 44 0 220° 12 - - - 0 Peak wind: 20 mph (18 kts) from 230° at 23 min
2018-04-22 17:00 46 - 39 0 210° 10 17 - - 0 None
2018-04-22 16:00 45 - 41 0 220° 9 - - - 0 None
2018-04-22 15:00 45 - 44 0 250° 3 - - - 0 None
2018-04-22 14:00 42 - 37 0 330° 7 - - - 0 None
2018-04-22 13:00 41 - 37 0 320° 6 - - - 0 None
2018-04-22 12:00 36 - 33 0 310° 3 - - - 0 None
2018-04-22 11:00 33 - 29 0 320° 5 - - - 0 None
2018-04-22 10:00 31 - - 0 330° 2 - - - 0 None
2018-04-22 09:00 33 - 27 0 320° 6 - - - 0 None
2018-04-22 08:00 31 - - 0 300° 2 - - - 0 None
2018-04-22 07:00 34 - - 0 310° 2 - - - 0 None
2018-04-22 06:00 36 - - 0 290° 2 - - - 0 None
2018-04-22 05:00 37 - - 0 210° 1 - - - 0 None
2018-04-22 04:00 39 - - 0 220° 2 - - - 0 None
2018-04-22 03:00 40 - 38 0 310° 3 - - - 0 None
2018-04-22 02:00 41 - 38 0 320° 5 - - - 0 None

Support USWX by starting your Amazon purchase here.